Time;durP1;ratioP1;P1;durP2;ratioP2;P2;SDS_P1;SDS_P2;PMS_P1;PMS_P2;Temp;Humidity;BMP_temperature;BMP_pressure;BME280_temperature;BME280_humidity;BME280_pressure;Samples;Min_cycle;Max_cycle;Signal;HPM_P1;HPM_P2
2021/07/14 00:01:47;;;;;;;21.15;18.85;;;;;;;23.48;65.84;99455.77;2213364;79;31869;-66
2021/07/14 00:04:49;;;;;;;23.92;19.55;;;;;;;23.44;65.92;99459.39;2212956;80;32858;-67
2021/07/14 00:07:52;;;;;;;21.30;19.20;;;;;;;23.42;65.94;99457.86;2213334;80;29383;-66
2021/07/14 00:10:53;;;;;;;25.68;20.25;;;;;;;23.39;66.10;99461.81;2200785;80;28278;-65
2021/07/14 00:23:43;;;;;;;22.10;19.20;;;;;;;23.25;66.49;99466.69;2200613;80;30564;-67
2021/07/14 00:26:45;;;;;;;24.18;19.62;;;;;;;23.17;66.56;99451.98;2198316;80;27627;-67
2021/07/14 00:29:50;;;;;;;21.12;19.00;;;;;;;23.22;66.74;99466.54;2203817;80;30087;-67
2021/07/14 00:32:51;;;;;;;22.20;19.92;;;;;;;23.18;66.75;99461.89;2211362;80;34825;-63
2021/07/14 00:35:54;;;;;;;21.37;19.27;;;;;;;23.17;66.82;99458.83;2200150;80;33354;-67
2021/07/14 00:38:57;;;;;;;22.55;19.05;;;;;;;23.17;66.85;99457.98;2199475;80;30347;-64
2021/07/14 00:41:59;;;;;;;23.15;19.52;;;;;;;23.12;66.91;99450.83;2200329;80;27706;-64
2021/07/14 00:45:01;;;;;;;19.85;17.23;;;;;;;23.08;67.12;99461.27;2199902;80;29057;-64
2021/07/14 00:48:05;;;;;;;19.37;17.32;;;;;;;23.04;67.18;99449.86;2199038;80;32213;-68
2021/07/14 00:51:07;;;;;;;21.40;17.90;;;;;;;23.03;67.23;99454.98;2200242;80;34187;-69
2021/07/14 00:54:09;;;;;;;21.27;18.57;;;;;;;23.02;67.33;99449.19;2180101;80;29660;-65
2021/07/14 00:57:10;;;;;;;20.20;18.05;;;;;;;22.99;67.42;99451.44;2179617;80;27749;-65
2021/07/14 01:00:15;;;;;;;22.67;19.10;;;;;;;22.97;67.61;99455.69;2199758;80;28651;-70
2021/07/14 01:03:19;;;;;;;20.60;18.40;;;;;;;22.93;67.58;99453.50;2199735;79;31828;-68
2021/07/14 01:06:26;;;;;;;23.87;19.27;;;;;;;22.93;67.67;99467.16;2198686;80;32953;-68
2021/07/14 01:09:59;;;;;;;21.20;18.60;;;;;;;22.91;67.63;99464.61;2199299;80;30097;-68
2021/07/14 01:13:37;;;;;;;19.52;17.52;;;;;;;22.90;67.74;99476.03;2200014;80;27588;-73
2021/07/14 01:16:42;;;;;;;21.57;18.35;;;;;;;22.88;67.84;99472.63;2131365;83;29866;-66
2021/07/14 01:20:27;;;;;;;21.15;18.10;;;;;;;22.84;68.09;99464.97;2160595;81;30849;-68
2021/07/14 01:23:47;;;;;;;23.45;20.90;;;;;;;22.83;68.39;99473.69;2095676;84;33056;-71
2021/07/14 01:27:13;;;;;;;22.05;19.77;;;;;;;22.75;68.19;99470.97;2057043;86;30525;-68
2021/07/14 01:30:31;;;;;;;21.68;18.98;;;;;;;22.69;68.44;99467.57;2007504;88;27682;-66
2021/07/14 01:33:57;;;;;;;;;;;;;;;;;;;;;
2021/07/14 01:36:52;;;;;;;23.10;19.10;;;;;;;22.58;68.60;99459.27;2020794;87;27811;-67
2021/07/14 01:39:57;;;;;;;24.70;19.32;;;;;;;22.56;68.78;99466.78;2083979;85;32979;-67
2021/07/14 01:43:01;;;;;;;22.52;18.30;;;;;;;22.52;68.91;99470.34;2075193;85;29971;-68
2021/07/14 01:46:03;;;;;;;21.20;18.92;;;;;;;22.50;68.93;99462.88;2049449;86;27718;-66
2021/07/14 01:49:11;;;;;;;22.20;19.95;;;;;;;22.50;69.04;99453.33;2049029;86;29958;-71
2021/07/14 01:52:18;;;;;;;22.20;19.90;;;;;;;22.50;69.13;99465.61;2032148;85;31377;-70
2021/07/14 01:55:20;;;;;;;21.70;19.40;;;;;;;22.50;69.14;99470.20;2085603;84;32963;-73
2021/07/14 01:58:26;;;;;;;21.35;19.05;;;;;;;22.49;69.22;99484.38;2133744;82;29853;-65
2021/07/14 02:01:30;;;;;;;22.22;20.00;;;;;;;22.46;69.21;99486.91;2158348;82;27632;-65
2021/07/14 02:04:34;;;;;;;21.85;18.23;;;;;;;22.44;69.19;99470.39;2158111;81;28703;-68
2021/07/14 02:07:36;;;;;;;22.27;19.82;;;;;;;22.41;69.29;99470.70;2124499;82;31065;-70
2021/07/14 02:10:39;;;;;;;22.50;19.27;;;;;;;22.39;69.34;99471.38;2141637;81;32996;-65
2021/07/14 02:13:43;;;;;;;20.90;18.73;;;;;;;22.36;69.52;99460.30;2158291;81;29333;-71
2021/07/14 02:16:48;;;;;;;21.30;19.00;;;;;;;22.34;69.55;99471.91;2136859;82;27766;-67
2021/07/14 02:20:02;;;;;;;23.22;19.62;;;;;;;22.30;69.53;99477.36;2119711;84;28671;-74
2021/07/14 02:23:05;;;;;;;;;;;;;;;22.24;69.59;99481.64;2121962;83;30939;-66
2021/07/14 02:26:07;;;;;;;20.48;18.30;;;;;;;22.19;69.71;99485.39;2119604;84;32848;-70
2021/07/14 02:29:10;;;;;;;23.62;18.92;;;;;;;22.15;69.84;99482.16;2120378;81;29339;-71
2021/07/14 02:32:15;;;;;;;21.10;18.87;;;;;;;22.12;69.88;99477.04;2128186;81;27607;-75
2021/07/14 02:35:18;;;;;;;22.73;20.32;;;;;;;22.12;70.02;99476.20;2129453;82;28752;-75
2021/07/14 02:38:30;;;;;;;21.65;19.48;;;;;;;22.10;70.13;99476.88;2134656;82;32055;-71
2021/07/14 02:41:48;;;;;;;21.57;19.48;;;;;;;22.09;70.25;99480.63;2134719;83;33781;-67
2021/07/14 02:44:53;;;;;;;26.80;21.17;;;;;;;22.06;70.29;99476.38;2166894;81;30139;-68
2021/07/14 02:47:56;;;;;;;27.50;22.73;;;;;;;22.01;70.34;99464.59;2174271;81;27698;-71
2021/07/14 02:50:59;;;;;;;22.73;20.30;;;;;;;21.99;70.45;99465.31;2152946;81;28715;-68
2021/07/14 02:54:05;;;;;;;26.77;22.25;;;;;;;21.97;70.48;99462.39;2152414;81;31014;-68
2021/07/14 02:57:12;;;;;;;22.65;20.35;;;;;;;21.97;70.51;99470.08;2134669;82;32986;-69
2021/07/14 03:00:15;;;;;;;25.68;23.00;;;;;;;21.96;70.58;99469.73;2134323;83;30247;-68
2021/07/14 03:03:17;;;;;;;25.50;22.40;;;;;;;21.96;70.72;99468.37;2141430;81;27727;-73
2021/07/14 03:06:20;;;;;;;25.08;22.25;;;;;;;21.95;70.72;99461.70;2173487;81;29381;-78
2021/07/14 03:09:32;;;;;;;24.43;21.93;;;;;;;21.95;70.73;99476.70;2152502;81;31079;-69
2021/07/14 03:12:28;;;;;;;29.60;23.22;;;;;;;21.96;70.88;99472.95;2172529;81;33027;-68
2021/07/14 03:15:31;;;;;;;28.38;22.58;;;;;;;21.97;70.92;99471.94;2138959;81;30160;-65
2021/07/14 03:18:34;;;;;;;25.65;22.73;;;;;;;22.00;70.95;99464.28;2134269;82;27699;-66
2021/07/14 03:21:36;;;;;;;27.90;23.40;;;;;;;22.04;71.02;99472.10;2111932;81;29653;-67
2021/07/14 03:24:41;;;;;;;23.98;21.42;;;;;;;22.07;71.04;99466.31;2134527;82;31143;-66
2021/07/14 03:27:50;;;;;;;27.05;22.98;;;;;;;22.08;71.04;99480.29;2134285;81;33812;-71
2021/07/14 03:30:55;;;;;;;26.70;22.52;;;;;;;22.10;71.15;99479.61;2166896;81;29343;-69
2021/07/14 03:33:58;;;;;;;24.40;21.75;;;;;;;22.16;71.22;99489.32;2174285;79;27712;-69
2021/07/14 03:37:04;;;;;;;26.27;21.62;;;;;;;22.23;71.30;99490.84;2173572;81;28778;-68
2021/07/14 03:40:07;;;;;;;25.27;22.77;;;;;;;22.34;71.31;99486.91;2156722;81;31291;-69
2021/07/14 03:43:10;;;;;;;;;;;;;;;22.44;71.36;99486.23;2137331;82;33761;-70
2021/07/14 03:46:12;;;;;;;28.47;23.30;;;;;;;22.56;71.38;99483.16;2134706;83;29942;-75
2021/07/14 03:49:14;;;;;;;26.48;22.80;;;;;;;22.68;71.29;99482.25;2115312;81;27678;-67
2021/07/14 03:52:17;;;;;;;23.92;21.40;;;;;;;22.79;71.28;99483.26;2173913;81;29487;-75
2021/07/14 03:55:20;;;;;;;24.57;22.05;;;;;;;22.95;71.29;99483.69;2152727;81;31027;-76
2021/07/14 03:58:24;;;;;;;25.20;22.60;;;;;;;23.03;71.22;99464.55;2173520;81;33051;-69
2021/07/14 04:01:26;;;;;;;25.23;22.48;;;;;;;23.30;71.11;99462.91;2145468;81;29338;-68
2021/07/14 04:04:28;;;;;;;26.52;22.13;;;;;;;23.47;70.99;99456.80;2134543;82;28358;-68
2021/07/14 04:07:32;;;;;;;24.35;20.95;;;;;;;23.65;70.76;99462.83;2136885;81;29625;-65
2021/07/14 04:10:34;;;;;;;24.25;21.68;;;;;;;23.82;70.59;99457.23;2173433;81;32054;-65
2021/07/14 04:13:36;;;;;;;25.23;21.37;;;;;;;24.01;70.42;99464.11;2173810;81;34137;-68
2021/07/14 04:16:37;;;;;;;34.13;22.75;;;;;;;24.17;70.20;99468.59;2174087;81;29719;-67
2021/07/14 04:19:40;;;;;;;25.72;22.73;;;;;;;24.36;69.82;99471.83;2171912;81;28058;-67
2021/07/14 04:22:42;;;;;;;32.88;24.15;;;;;;;24.52;69.63;99468.92;2173823;81;29463;-66
2021/07/14 04:25:44;;;;;;;24.23;21.73;;;;;;;24.70;69.16;99464.45;2152702;81;31052;-65
2021/07/14 04:28:46;;;;;;;25.23;22.80;;;;;;;24.88;68.89;99459.11;2154579;81;34245;-63
2021/07/14 04:31:47;;;;;;;27.85;23.52;;;;;;;25.08;68.68;99451.67;2166964;81;30230;-63
2021/07/14 04:34:50;;;;;;;25.88;23.15;;;;;;;25.29;68.21;99450.86;2137554;81;27686;-63
2021/07/14 04:37:52;;;;;;;24.92;22.40;;;;;;;25.47;67.86;99460.07;2137000;81;28684;-65
2021/07/14 04:40:54;;;;;;;27.52;23.47;;;;;;;25.64;67.06;99464.77;2158380;81;32215;-64
2021/07/14 04:44:03;;;;;;;26.70;22.75;;;;;;;25.71;66.81;99456.60;2173538;81;34132;-65
2021/07/14 04:47:08;;;;;;;31.97;22.75;;;;;;;25.88;66.93;99457.20;2173350;81;30127;-63
2021/07/14 04:50:13;;;;;;;29.92;22.85;;;;;;;26.18;66.84;99457.05;2171577;81;27727;-63
2021/07/14 04:53:16;;;;;;;24.35;21.50;;;;;;;26.48;66.47;99459.58;2150791;81;28648;-63
2021/07/14 04:56:17;;;;;;;24.27;21.73;;;;;;;26.71;66.02;99474.41;2174074;81;31915;-65
2021/07/14 04:59:19;;;;;;;25.40;20.80;;;;;;;26.96;65.74;99480.83;2165195;81;32960;-63
2021/07/14 05:02:22;;;;;;;26.97;21.45;;;;;;;27.20;65.08;99476.70;2174010;81;30456;-63
2021/07/14 05:05:26;;;;;;;21.05;18.48;;;;;;;27.43;64.66;99474.97;2167965;81;27673;-63
2021/07/14 05:08:28;;;;;;;23.38;20.90;;;;;;;27.53;64.20;99468.24;2135119;83;28591;-65
2021/07/14 05:11:30;;;;;;;27.10;20.57;;;;;;;27.67;63.95;99465.00;2167075;81;32133;-66
2021/07/14 05:14:33;;;;;;;25.15;21.52;;;;;;;27.79;63.53;99469.36;2172935;81;33836;-65
2021/07/14 05:17:34;;;;;;;24.55;21.80;;;;;;;27.81;63.03;99466.70;2173206;81;29389;-65
2021/07/14 05:20:36;;;;;;;26.15;21.90;;;;;;;27.83;63.05;99485.24;2173947;81;27633;-64
2021/07/14 05:23:38;;;;;;;24.60;21.60;;;;;;;27.95;62.96;99493.73;2151581;81;29841;-66
2021/07/14 05:26:46;;;;;;;23.80;21.37;;;;;;;28.09;62.52;99490.98;2146658;81;31689;-66
2021/07/14 05:29:49;;;;;;;24.52;20.27;;;;;;;28.30;62.40;99485.81;2173646;81;33551;-66
2021/07/14 05:32:50;;;;;;;27.13;20.85;;;;;;;28.64;62.11;99487.45;2173355;81;30399;-69
2021/07/14 05:35:54;;;;;;;30.72;20.20;;;;;;;28.90;61.51;99491.25;2190127;79;28345;-67
2021/07/14 05:38:58;;;;;;;20.92;18.82;;;;;;;29.12;60.92;99481.33;2162216;81;28235;-69
2021/07/14 05:42:00;;;;;;;22.37;17.40;;;;;;;29.13;60.23;99489.88;2162312;81;31420;-65
2021/07/14 05:45:03;;;;;;;22.07;17.67;;;;;;;29.02;59.56;99494.19;2161594;82;33896;-65
2021/07/14 05:48:06;;;;;;;21.73;16.62;;;;;;;29.02;59.63;99494.19;2162177;81;29645;-67
2021/07/14 05:51:09;;;;;;;15.53;13.88;;;;;;;29.09;59.19;99496.38;2162570;81;36218;-69
2021/07/14 05:54:11;;;;;;;22.15;14.50;;;;;;;29.17;58.92;99511.83;2197747;80;29949;-68
2021/07/14 05:57:13;;;;;;;24.52;14.73;;;;;;;29.66;58.65;99515.55;2202105;80;32096;-68
2021/07/14 06:00:16;;;;;;;18.07;13.83;;;;;;;30.20;58.07;99519.37;2202444;80;33173;-69
2021/07/14 06:03:17;;;;;;;17.40;14.15;;;;;;;30.71;57.03;99531.27;2180005;80;30327;-67
2021/07/14 06:06:20;;;;;;;18.30;15.15;;;;;;;30.94;56.65;99539.44;2162415;82;27728;-67
2021/07/14 06:09:22;;;;;;;21.17;13.28;;;;;;;31.54;55.81;99538.76;2162329;81;28656;-70
2021/07/14 06:12:24;;;;;;;19.17;12.82;;;;;;;32.27;54.49;99539.64;2162495;82;31043;-70
2021/07/14 06:15:29;;;;;;;21.23;18.73;;;;;;;32.89;53.63;99541.69;2181829;80;32953;-65
2021/07/14 06:18:31;;;;;;;18.48;13.58;;;;;;;33.33;52.98;99549.58;2199679;80;29332;-68
2021/07/14 06:21:32;;;;;;;18.75;12.95;;;;;;;33.89;52.25;99551.86;2162061;81;27742;-66
2021/07/14 06:24:34;;;;;;;18.52;12.40;;;;;;;34.52;51.14;99558.80;2162271;82;28645;-68
2021/07/14 06:27:37;;;;;;;20.10;12.35;;;;;;;35.16;50.11;99568.68;2162359;81;31465;-69
2021/07/14 06:30:46;;;;;;;18.43;11.80;;;;;;;35.70;48.87;99574.95;2191872;80;33730;-67
2021/07/14 06:33:47;;;;;;;16.73;12.10;;;;;;;35.77;47.71;99587.84;2202588;80;30214;-69
2021/07/14 06:36:49;;;;;;;16.77;11.40;;;;;;;35.59;46.79;99592.09;2202056;80;27711;-68
2021/07/14 06:39:52;;;;;;;21.80;11.50;;;;;;;35.26;46.70;99589.69;2184183;80;28854;-67
2021/07/14 06:42:54;;;;;;;16.62;10.98;;;;;;;34.88;46.17;99584.94;2162430;82;31886;-68
2021/07/14 06:45:56;;;;;;;19.32;10.78;;;;;;;34.37;45.79;99581.59;2169263;80;33339;-68
2021/07/14 06:49:00;;;;;;;17.02;10.90;;;;;;;33.90;45.53;99589.11;2202325;80;29395;-70
2021/07/14 06:52:02;;;;;;;18.70;10.98;;;;;;;33.38;45.85;99610.81;2202571;80;34522;-71
2021/07/14 06:55:06;;;;;;;19.20;10.35;;;;;;;32.92;46.26;99651.36;2192823;80;28640;-71
2021/07/14 06:58:08;;;;;;;22.35;16.15;;;;;;;32.47;46.50;99679.03;2162297;80;31025;-73
2021/07/14 07:01:11;;;;;;;16.37;10.68;;;;;;;31.98;46.56;99689.59;2162025;81;32381;-74
2021/07/14 07:04:13;;;;;;;23.62;11.43;;;;;;;31.48;47.13;99712.19;2161920;81;30255;-76
2021/07/14 07:07:14;;;;;;;18.62;9.55;;;;;;;31.11;47.49;99736.14;2200094;80;27639;-72
2021/07/14 07:10:17;;;;;;;20.37;9.70;;;;;;;30.77;47.83;99750.20;2202130;80;28707;-71
2021/07/14 07:13:19;;;;;;;15.70;8.88;;;;;;;30.56;48.15;99748.65;2190881;80;31863;-78
2021/07/14 07:16:20;;;;;;;17.37;7.85;;;;;;;30.51;48.69;99723.03;2162240;81;33759;-77
2021/07/14 07:19:22;;;;;;;18.98;7.33;;;;;;;30.50;48.48;99712.17;2162123;82;29153;-73
2021/07/14 07:22:24;;;;;;;15.72;6.90;;;;;;;30.50;48.64;99701.12;2161096;82;27714;-75
2021/07/14 07:25:26;;;;;;;16.87;6.95;;;;;;;30.69;49.07;99697.95;2162183;80;29486;-74
2021/07/14 07:28:35;;;;;;;14.98;6.78;;;;;;;31.22;48.52;99718.82;2162430;82;31043;-75
2021/07/14 07:31:33;;;;;;;16.12;6.20;;;;;;;31.44;48.36;99719.25;2095953;84;33227;-73
2021/07/14 07:34:35;;;;;;;9.60;5.17;;;;;;;31.60;47.98;99720.58;2104873;84;29393;-78
2021/07/14 07:37:37;;;;;;;13.48;4.28;;;;;;;31.74;48.19;99703.84;2097146;83;27679;-77
2021/07/14 07:40:39;;;;;;;9.55;4.00;;;;;;;32.28;48.01;99682.69;2097346;83;28749;-79
2021/07/14 07:43:41;;;;;;;9.73;4.67;;;;;;;32.86;47.00;99674.81;2074550;85;32018;-77
2021/07/14 07:46:43;;;;;;;7.53;3.45;;;;;;;33.28;46.67;99682.19;2058396;86;32952;-77
2021/07/14 07:49:46;;;;;;;7.35;3.90;;;;;;;33.69;45.93;99693.41;2147341;82;29338;-78
2021/07/14 07:52:48;;;;;;;16.55;3.75;;;;;;;34.06;45.52;99679.20;2135888;82;27622;-73
2021/07/14 07:55:51;;;;;;;7.53;3.22;;;;;;;34.36;45.02;99693.92;2097289;84;28633;-82
2021/07/14 07:58:54;;;;;;;13.38;3.52;;;;;;;34.41;44.00;99704.33;2135923;82;31098;-79
2021/07/14 08:01:56;;;;;;;7.40;3.57;;;;;;;34.18;43.71;99704.72;2135095;82;33123;-76
2021/07/14 08:04:59;;;;;;;10.68;3.30;;;;;;;33.81;43.16;99713.36;2134183;82;29442;-70
2021/07/14 08:08:01;;;;;;;12.40;2.72;;;;;;;33.27;43.19;99724.92;2135003;82;27625;-76
2021/07/14 08:11:03;;;;;;;8.28;3.52;;;;;;;32.88;43.26;99717.03;2095541;84;29940;-76
2021/07/14 08:14:05;;;;;;;11.05;3.37;;;;;;;32.60;43.35;99714.05;2140298;82;31946;-76
2021/07/14 08:17:07;;;;;;;7.08;1.98;;;;;;;32.49;43.55;99717.08;2140052;82;32998;-77
2021/07/14 08:20:12;;;;;;;4.12;2.08;;;;;;;32.27;43.18;99714.27;2104853;84;29332;-77
2021/07/14 08:23:14;;;;;;;4.65;1.95;;;;;;;32.15;42.80;99711.13;2105051;83;28162;-74
2021/07/14 08:26:16;;;;;;;5.45;1.95;;;;;;;32.11;42.94;99719.89;2105514;83;28632;-74
2021/07/14 08:29:17;;;;;;;5.67;1.70;;;;;;;32.23;42.69;99729.66;2104833;83;31227;-70
2021/07/14 08:32:19;;;;;;;6.97;2.58;;;;;;;32.26;42.93;99737.55;2104608;84;33726;-71
2021/07/14 08:35:21;;;;;;;10.20;2.30;;;;;;;32.32;42.62;99738.53;2109314;81;29345;-77
2021/07/14 08:38:23;;;;;;;4.20;2.77;;;;;;;32.38;42.59;99754.21;2165259;80;27686;-75
2021/07/14 08:41:26;;;;;;;7.78;1.82;;;;;;;32.37;42.53;99751.13;2172260;80;28678;-78
2021/07/14 08:44:28;;;;;;;6.67;2.50;;;;;;;32.31;42.04;99747.92;2202448;80;31010;-76
2021/07/14 08:47:30;;;;;;;5.40;2.37;;;;;;;32.28;42.57;99756.15;2202411;80;33010;-74
2021/07/14 08:50:32;;;;;;;4.58;1.87;;;;;;;32.22;42.53;99762.61;2185502;80;29338;-68
2021/07/14 08:53:34;;;;;;;4.33;2.20;;;;;;;32.07;42.50;99778.23;2162390;82;27696;-80
2021/07/14 08:56:36;;;;;;;8.68;2.47;;;;;;;31.78;42.48;99766.85;2162580;82;28628;-71
2021/07/14 08:59:38;;;;;;;2.67;1.92;;;;;;;31.46;42.31;99767.45;2086949;80;31034;-76
2021/07/14 09:02:41;;;;;;;6.03;2.02;;;;;;;31.19;42.54;99765.77;2202481;80;32969;-72
2021/07/14 09:05:44;;;;;;;6.47;2.08;;;;;;;31.06;43.05;99781.06;2202414;80;29628;-75
2021/07/14 09:08:46;;;;;;;8.68;2.33;;;;;;;30.95;43.39;99819.14;2132643;82;27677;-79
2021/07/14 09:11:56;;;;;;;10.10;1.75;;;;;;;30.83;43.80;99842.50;2162319;82;29737;-74
2021/07/14 09:15:06;;;;;;;4.67;1.65;;;;;;;30.83;43.94;99839.22;2163212;80;31022;-81
2021/07/14 09:18:08;;;;;;;6.20;1.82;;;;;;;30.79;43.81;99839.34;2162291;82;33246;-81
2021/07/14 09:21:17;;;;;;;7.47;2.22;;;;;;;30.70;43.83;99847.55;2162429;82;29338;-77
2021/07/14 09:24:34;;;;;;;10.35;2.50;;;;;;;30.49;44.00;99848.17;2180821;80;27720;-75
2021/07/14 09:27:36;;;;;;;6.00;2.10;;;;;;;30.28;44.13;99844.62;2202473;80;28673;-65
2021/07/14 09:30:40;;;;;;;6.62;2.50;;;;;;;30.03;44.57;99841.72;2202556;80;31178;-76
2021/07/14 09:33:44;;;;;;;8.45;2.72;;;;;;;29.82;45.04;99844.17;2118303;83;33775;-72
2021/07/14 09:36:53;;;;;;;19.55;6.70;;;;;;;29.57;45.10;99836.53;2162189;82;29317;-71
2021/07/14 09:39:55;;;;;;;4.92;1.95;;;;;;;29.27;45.49;99835.55;2197830;80;27680;-69
2021/07/14 09:43:02;;;;;;;8.83;1.90;;;;;;;29.04;45.95;99867.66;2202083;80;29220;-70
2021/07/14 09:46:07;;;;;;;5.10;2.02;;;;;;;29.08;45.96;99839.44;2200657;80;31081;-74
2021/07/14 09:49:13;;;;;;;4.50;1.45;;;;;;;29.17;46.10;99862.16;2202324;80;32936;-75
2021/07/14 09:52:20;;;;;;;6.25;2.17;;;;;;;29.15;45.81;99921.38;2190594;80;29329;-75
2021/07/14 09:55:30;;;;;;;11.75;2.30;;;;;;;28.94;45.70;99977.85;2174588;80;27609;-67
2021/07/14 09:58:32;;;;;;;13.08;2.98;;;;;;;28.63;46.20;99933.64;2183301;80;29502;-71
2021/07/14 10:01:43;;;;;;;5.45;2.20;;;;;;;28.36;46.79;99925.77;2161909;82;31087;-76
2021/07/14 10:04:44;;;;;;;9.73;2.60;;;;;;;28.11;47.21;99941.38;2161967;82;33024;-68
2021/07/14 10:07:46;;;;;;;7.83;2.60;;;;;;;27.99;48.11;99924.52;2170142;80;37119;-68
2021/07/14 10:10:51;;;;;;;9.63;2.50;;;;;;;27.93;48.54;99936.86;2187867;80;27707;-69
2021/07/14 10:14:15;;;;;;;13.58;3.30;;;;;;;27.88;49.02;99942.97;2162260;82;29349;-69
2021/07/14 10:18:04;;;;;;;5.35;2.00;;;;;;;27.76;49.11;99957.79;2162633;82;31031;-69
2021/07/14 10:21:15;;;;;;;6.08;2.35;;;;;;;27.56;49.35;99928.17;2143494;80;33073;-70
2021/07/14 10:24:29;;;;;;;10.88;3.30;;;;;;;27.31;49.83;99915.30;2142445;83;29310;-71
2021/07/14 10:27:42;;;;;;;5.37;2.08;;;;;;;27.17;49.70;99923.95;2140387;83;27706;-74
2021/07/14 10:30:59;;;;;;;7.35;2.17;;;;;;;27.11;49.90;99903.59;2109960;83;28682;-70
2021/07/14 10:34:20;;;;;;;4.00;1.90;;;;;;;27.02;50.56;99916.28;2104654;83;31056;-74
2021/07/14 10:37:41;;;;;;;14.25;8.25;;;;;;;26.88;50.50;99905.63;2114473;82;33514;-74
2021/07/14 10:40:57;;;;;;;7.80;2.45;;;;;;;26.78;50.81;99926.02;2144373;83;30120;-73
2021/07/14 10:44:06;;;;;;;5.83;2.12;;;;;;;26.89;51.44;99926.05;2125651;83;27735;-72
2021/07/14 10:47:08;;;;;;;4.77;1.97;;;;;;;27.11;50.95;99921.47;2092343;83;28651;-68
2021/07/14 10:50:12;;;;;;;8.98;5.10;;;;;;;27.48;51.20;99904.94;2128210;83;32268;-79
2021/07/14 10:53:17;;;;;;;9.48;3.75;;;;;;;27.81;50.67;99875.47;2071247;85;35210;-77
2021/07/14 10:56:19;;;;;;;5.33;2.50;;;;;;;28.03;49.33;99864.41;2071392;84;29393;-79
2021/07/14 10:59:22;;;;;;;7.95;1.90;;;;;;;28.17;48.73;99840.05;2175087;80;27620;-80
2021/07/14 11:02:46;;;;;;;16.35;9.05;;;;;;;28.10;47.89;99813.53;2174173;81;28798;-77
2021/07/14 11:05:48;;;;;;;13.72;11.30;;;;;;;28.10;48.18;99801.98;2170907;81;31100;-80
2021/07/14 11:08:51;;;;;;;14.40;9.48;;;;;;;28.05;47.85;99806.69;2171720;81;32955;-68
2021/07/14 11:11:57;;;;;;;8.40;2.33;;;;;;;28.16;47.95;99799.80;2174569;81;30131;-76
2021/07/14 11:15:01;;;;;;;8.58;2.77;;;;;;;28.29;47.74;99794.88;2177450;81;27666;-76
2021/07/14 11:18:32;;;;;;;6.33;2.55;;;;;;;28.45;47.00;99796.95;2176232;80;28857;-76
2021/07/14 11:21:57;;;;;;;8.63;2.92;;;;;;;28.44;46.88;99785.61;2177434;81;31765;-76
2021/07/14 11:24:59;;;;;;;6.28;2.60;;;;;;;28.36;46.59;99770.11;2180428;81;33898;-76
2021/07/14 11:28:08;;;;;;;3.90;2.08;;;;;;;28.25;46.96;99762.42;2177764;81;29437;-82
2021/07/14 11:31:10;;;;;;;6.33;2.25;;;;;;;28.40;46.70;99750.71;2173238;81;27707;-80
2021/07/14 11:34:29;;;;;;;4.87;2.12;;;;;;;28.49;45.93;99746.73;2174916;81;28703;-74
2021/07/14 11:37:38;;;;;;;8.20;4.87;;;;;;;28.60;46.00;99735.63;2177189;80;31054;-79
2021/07/14 11:40:47;;;;;;;21.73;10.72;;;;;;;28.75;46.30;99755.30;2191289;80;32997;-72
2021/07/14 11:43:52;;;;;;;7.87;3.10;;;;;;;28.81;45.88;99773.73;2196387;81;29396;-74
2021/07/14 11:46:54;;;;;;;6.08;2.70;;;;;;;29.03;46.41;99782.70;2196409;81;27729;-76
2021/07/14 11:49:55;;;;;;;4.05;2.37;;;;;;;29.26;45.14;99798.84;2131576;83;28680;-78
2021/07/14 11:52:59;;;;;;;10.08;3.15;;;;;;;29.33;45.33;99802.11;2138935;82;31183;-73
2021/07/14 11:56:18;;;;;;;7.33;3.10;;;;;;;29.47;45.35;99798.86;2072915;84;33741;-76
2021/07/14 11:59:24;;;;;;;5.75;2.47;;;;;;;29.59;44.87;99805.97;2110654;83;29386;-73
2021/07/14 12:02:26;;;;;;;4.12;1.92;;;;;;;29.60;43.37;99816.79;2112205;84;27710;-76
2021/07/14 12:05:37;;;;;;;6.17;2.35;;;;;;;29.65;44.21;99837.71;2091527;85;28838;-75
2021/07/14 12:08:39;;;;;;;9.08;2.77;;;;;;;29.74;45.30;99835.58;2131230;83;31842;-76
2021/07/14 12:11:57;;;;;;;6.83;2.83;;;;;;;29.82;44.90;99827.61;2195883;80;33932;-78
2021/07/14 12:15:00;;;;;;;15.18;3.20;;;;;;;29.73;43.58;99807.66;2196341;81;29323;-72
2021/07/14 12:18:07;;;;;;;12.07;3.30;;;;;;;29.52;43.88;99794.94;2162422;82;27810;-76
2021/07/14 12:21:10;;;;;;;3.98;2.42;;;;;;;29.44;44.10;99782.21;2156324;82;28653;-71
2021/07/14 12:24:38;;;;;;;5.87;2.45;;;;;;;29.31;43.10;99761.47;2156376;82;31943;-73
2021/07/14 12:27:42;;;;;;;7.47;1.98;;;;;;;29.32;43.90;99753.51;2166839;81;33035;-67
2021/07/14 12:30:46;;;;;;;;;;;;;;;29.34;44.41;99732.08;2179240;81;30686;-74
2021/07/14 12:33:55;;;;;;;8.15;2.15;;;;;;;29.48;44.14;99730.19;2195966;80;27580;-79
2021/07/14 12:36:58;;;;;;;7.80;2.20;;;;;;;29.50;43.82;99722.55;2193473;79;29458;-68
2021/07/14 12:40:00;;;;;;;7.08;3.02;;;;;;;29.26;43.36;99728.48;2172523;81;31937;-68
2021/07/14 12:43:09;;;;;;;7.33;2.12;;;;;;;29.06;43.45;99707.79;2172762;81;33400;-73
2021/07/14 12:46:11;;;;;;;11.03;2.27;;;;;;;28.89;43.62;99718.92;2152393;81;29957;-70
2021/07/14 12:49:16;;;;;;;6.40;3.27;;;;;;;28.79;43.86;99711.93;2152115;81;27267;-70
2021/07/14 12:52:25;;;;;;;8.78;3.05;;;;;;;28.81;44.03;99710.33;2170972;81;28674;-70
2021/07/14 12:55:30;;;;;;;5.95;1.90;;;;;;;28.75;43.36;99721.67;2171774;82;31046;-72
2021/07/14 12:58:33;;;;;;;4.47;2.02;;;;;;;28.66;43.19;99718.78;2139758;82;32939;-72
2021/07/14 13:01:35;;;;;;;7.90;2.63;;;;;;;28.68;44.08;99719.42;2124115;83;29382;-74
2021/07/14 13:04:37;;;;;;;8.80;2.52;;;;;;;28.69;44.34;99711.98;2136026;83;27675;-72
2021/07/14 13:07:46;;;;;;;10.43;2.85;;;;;;;28.57;43.65;99699.34;2141564;83;28633;-70
2021/07/14 13:10:47;;;;;;;8.00;3.35;;;;;;;28.46;44.65;99686.52;2141789;83;31025;-72
2021/07/14 13:13:50;;;;;;;6.45;2.40;;;;;;;28.42;44.34;99672.83;2139534;82;32941;-73
2021/07/14 13:16:51;;;;;;;5.55;2.40;;;;;;;28.37;44.71;99687.78;2141303;82;29636;-73
2021/07/14 13:20:03;;;;;;;6.85;2.77;;;;;;;28.28;44.71;99703.66;2141656;83;27778;-71
2021/07/14 13:23:06;;;;;;;8.40;3.70;;;;;;;28.18;45.43;99697.67;2141574;83;29726;-73
2021/07/14 13:26:13;;;;;;;6.60;2.52;;;;;;;28.10;45.22;99689.61;2140998;82;31698;-70
2021/07/14 13:29:26;;;;;;;12.18;2.70;;;;;;;28.05;45.85;99694.30;2138330;83;33753;-68
2021/07/14 13:32:28;;;;;;;10.05;3.17;;;;;;;28.03;46.49;99701.41;2141358;83;29487;-67
2021/07/14 13:35:40;;;;;;;5.60;2.83;;;;;;;28.08;47.05;99702.16;2141132;82;28204;-65
2021/07/14 13:38:53;;;;;;;8.25;2.72;;;;;;;28.23;47.24;99696.53;2141201;82;29478;-69
2021/07/14 13:41:57;;;;;;;9.98;2.70;;;;;;;28.30;47.32;99700.14;2141757;83;31058;-69
2021/07/14 13:44:58;;;;;;;8.63;2.60;;;;;;;28.18;47.79;99699.05;2141121;82;33853;-70
2021/07/14 13:48:03;;;;;;;7.05;2.83;;;;;;;28.08;47.77;99710.96;2141686;82;30142;-75
2021/07/14 13:51:05;;;;;;;7.92;3.37;;;;;;;27.95;48.07;99725.52;2141306;83;28181;-73
2021/07/14 13:54:30;;;;;;;4.08;2.58;;;;;;;27.78;48.37;99731.36;2141479;83;28792;-71
2021/07/14 13:57:33;;;;;;;7.78;2.65;;;;;;;27.71;48.47;99768.48;2127522;83;31151;-71
2021/07/14 14:00:36;;;;;;;6.83;2.50;;;;;;;27.65;48.79;99784.41;2128246;83;33794;-71
2021/07/14 14:03:39;;;;;;;8.43;2.83;;;;;;;27.63;49.43;99796.17;2128087;83;29366;-69
2021/07/14 14:06:46;;;;;;;7.67;2.47;;;;;;;27.59;49.66;99800.37;2128029;83;27773;-75
2021/07/14 14:10:05;;;;;;;9.53;2.77;;;;;;;27.55;49.86;99784.77;2122824;83;28653;-74
2021/07/14 14:13:09;;;;;;;9.70;2.55;;;;;;;27.62;50.17;99763.33;2111534;84;31289;-72
2021/07/14 14:16:10;;;;;;;8.97;2.90;;;;;;;27.60;50.65;99755.30;2124062;83;32983;-69
2021/07/14 14:19:16;;;;;;;11.10;3.00;;;;;;;27.56;50.97;99735.56;2127064;83;29378;-72
2021/07/14 14:22:28;;;;;;;10.63;2.75;;;;;;;27.53;50.93;99696.60;2147065;82;27747;-71
2021/07/14 14:25:36;;;;;;;7.97;2.47;;;;;;;27.42;50.19;99700.73;2146028;82;28641;-70
2021/07/14 14:28:34;;;;;;;4.55;2.40;;;;;;;27.30;50.74;99690.30;2127534;82;31068;-70
2021/07/14 14:31:36;;;;;;;9.73;2.77;;;;;;;27.21;51.21;99719.53;2131118;82;32943;-70
2021/07/14 14:34:39;;;;;;;4.65;2.33;;;;;;;27.08;51.72;99737.62;2164830;80;29308;-70